sensor_id;sensor_type;location;lat;lon;timestamp;temperature;humidity
20504;DHT22;10410;51.046;6.980;2023-12-07T00:01:20;1.20;99.90
20504;DHT22;10410;51.046;6.980;2023-12-07T00:08:21;1.20;99.90
20504;DHT22;10410;51.046;6.980;2023-12-07T00:15:21;1.30;99.90
20504;DHT22;10410;51.046;6.980;2023-12-07T00:22:21;1.40;99.90
20504;DHT22;10410;51.046;6.980;2023-12-07T00:29:25;1.40;99.90
20504;DHT22;10410;51.046;6.980;2023-12-07T00:36:26;1.30;99.90
20504;DHT22;10410;51.046;6.980;2023-12-07T00:43:26;1.30;99.90
20504;DHT22;10410;51.046;6.980;2023-12-07T00:50:27;1.20;99.90
20504;DHT22;10410;51.046;6.980;2023-12-07T00:57:28;1.10;99.90
20504;DHT22;10410;51.046;6.980;2023-12-07T01:04:29;1.10;99.90
20504;DHT22;10410;51.046;6.980;2023-12-07T01:11:29;1.10;99.90
20504;DHT22;10410;51.046;6.980;2023-12-07T01:18:30;1.00;99.90
20504;DHT22;10410;51.046;6.980;2023-12-07T01:25:30;1.10;99.90
20504;DHT22;10410;51.046;6.980;2023-12-07T01:32:30;1.10;99.90
20504;DHT22;10410;51.046;6.980;2023-12-07T01:39:31;1.10;99.90
20504;DHT22;10410;51.046;6.980;2023-12-07T01:46:32;1.10;99.90
20504;DHT22;10410;51.046;6.980;2023-12-07T01:53:33;1.10;99.90
20504;DHT22;10410;51.046;6.980;2023-12-07T02:00:34;1.20;99.90
20504;DHT22;10410;51.046;6.980;2023-12-07T02:07:34;1.20;99.90
20504;DHT22;10410;51.046;6.980;2023-12-07T02:14:35;1.30;99.90
20504;DHT22;10410;51.046;6.980;2023-12-07T02:21:42;1.40;99.90
20504;DHT22;10410;51.046;6.980;2023-12-07T02:28:47;1.50;99.90
20504;DHT22;10410;51.046;6.980;2023-12-07T02:35:48;1.60;99.90
20504;DHT22;10410;51.046;6.980;2023-12-07T02:42:48;1.70;99.90
20504;DHT22;10410;51.046;6.980;2023-12-07T02:49:49;1.80;99.90
20504;DHT22;10410;51.046;6.980;2023-12-07T02:56:50;1.90;99.90
20504;DHT22;10410;51.046;6.980;2023-12-07T03:03:50;1.90;99.90
20504;DHT22;10410;51.046;6.980;2023-12-07T03:10:51;2.00;99.90
20504;DHT22;10410;51.046;6.980;2023-12-07T03:17:51;2.10;99.90
20504;DHT22;10410;51.046;6.980;2023-12-07T03:24:52;2.10;99.90
20504;DHT22;10410;51.046;6.980;2023-12-07T03:31:53;2.20;99.90
20504;DHT22;10410;51.046;6.980;2023-12-07T03:38:53;2.30;99.90
20504;DHT22;10410;51.046;6.980;2023-12-07T03:45:54;2.40;99.90
20504;DHT22;10410;51.046;6.980;2023-12-07T03:52:55;2.40;99.90
20504;DHT22;10410;51.046;6.980;2023-12-07T03:59:55;2.50;99.90
20504;DHT22;10410;51.046;6.980;2023-12-07T04:06:55;2.50;99.90
20504;DHT22;10410;51.046;6.980;2023-12-07T04:13:56;2.50;99.90
20504;DHT22;10410;51.046;6.980;2023-12-07T04:20:57;2.50;99.90
20504;DHT22;10410;51.046;6.980;2023-12-07T04:27:59;2.60;99.90
20504;DHT22;10410;51.046;6.980;2023-12-07T04:34:59;2.70;99.90
20504;DHT22;10410;51.046;6.980;2023-12-07T04:41:59;2.70;99.90
20504;DHT22;10410;51.046;6.980;2023-12-07T04:49:00;2.80;99.90
20504;DHT22;10410;51.046;6.980;2023-12-07T04:56:00;2.80;99.90
20504;DHT22;10410;51.046;6.980;2023-12-07T05:03:01;2.70;99.90
20504;DHT22;10410;51.046;6.980;2023-12-07T05:10:03;2.70;99.90
20504;DHT22;10410;51.046;6.980;2023-12-07T05:17:04;2.60;99.90
20504;DHT22;10410;51.046;6.980;2023-12-07T05:24:05;2.50;99.90
20504;DHT22;10410;51.046;6.980;2023-12-07T05:31:06;2.60;99.90
20504;DHT22;10410;51.046;6.980;2023-12-07T05:38:07;2.60;99.90
20504;DHT22;10410;51.046;6.980;2023-12-07T05:45:07;2.60;99.90
20504;DHT22;10410;51.046;6.980;2023-12-07T05:52:10;2.50;99.90
20504;DHT22;10410;51.046;6.980;2023-12-07T05:59:10;2.50;99.90
20504;DHT22;10410;51.046;6.980;2023-12-07T06:06:11;2.40;99.90
20504;DHT22;10410;51.046;6.980;2023-12-07T06:13:13;2.30;99.90
20504;DHT22;10410;51.046;6.980;2023-12-07T06:20:14;2.30;99.90
20504;DHT22;10410;51.046;6.980;2023-12-07T06:27:14;2.20;99.90
20504;DHT22;10410;51.046;6.980;2023-12-07T06:34:15;2.20;99.90
20504;DHT22;10410;51.046;6.980;2023-12-07T06:41:16;2.10;99.90
20504;DHT22;10410;51.046;6.980;2023-12-07T06:48:16;2.10;99.90
20504;DHT22;10410;51.046;6.980;2023-12-07T06:55:17;2.00;99.90
20504;DHT22;10410;51.046;6.980;2023-12-07T07:02:17;1.90;99.90
20504;DHT22;10410;51.046;6.980;2023-12-07T07:09:18;1.80;99.90
20504;DHT22;10410;51.046;6.980;2023-12-07T07:16:18;1.70;99.90
20504;DHT22;10410;51.046;6.980;2023-12-07T07:23:19;1.70;99.90
20504;DHT22;10410;51.046;6.980;2023-12-07T07:30:19;1.70;99.90
20504;DHT22;10410;51.046;6.980;2023-12-07T07:37:20;1.60;99.90
20504;DHT22;10410;51.046;6.980;2023-12-07T07:44:21;1.60;99.90
20504;DHT22;10410;51.046;6.980;2023-12-07T07:51:21;1.50;99.90
20504;DHT22;10410;51.046;6.980;2023-12-07T07:58:22;1.50;99.90
20504;DHT22;10410;51.046;6.980;2023-12-07T08:05:22;1.50;99.90
20504;DHT22;10410;51.046;6.980;2023-12-07T08:12:23;1.50;99.90
20504;DHT22;10410;51.046;6.980;2023-12-07T08:19:24;1.50;99.90
20504;DHT22;10410;51.046;6.980;2023-12-07T08:26:24;1.50;99.90
20504;DHT22;10410;51.046;6.980;2023-12-07T08:33:25;1.50;99.90
20504;DHT22;10410;51.046;6.980;2023-12-07T08:40:25;1.60;99.90
20504;DHT22;10410;51.046;6.980;2023-12-07T08:47:25;1.60;99.90
20504;DHT22;10410;51.046;6.980;2023-12-07T08:54:28;1.60;99.90
20504;DHT22;10410;51.046;6.980;2023-12-07T09:01:28;1.70;99.90
20504;DHT22;10410;51.046;6.980;2023-12-07T09:08:32;1.70;99.90
20504;DHT22;10410;51.046;6.980;2023-12-07T09:15:33;1.80;99.90
20504;DHT22;10410;51.046;6.980;2023-12-07T09:22:34;1.90;99.90
20504;DHT22;10410;51.046;6.980;2023-12-07T09:29:37;1.90;99.90
20504;DHT22;10410;51.046;6.980;2023-12-07T09:36:37;2.00;99.90
20504;DHT22;10410;51.046;6.980;2023-12-07T09:43:37;2.00;99.90
20504;DHT22;10410;51.046;6.980;2023-12-07T09:50:38;2.10;99.90
20504;DHT22;10410;51.046;6.980;2023-12-07T09:57:39;2.20;99.90
20504;DHT22;10410;51.046;6.980;2023-12-07T10:04:40;2.30;99.90
20504;DHT22;10410;51.046;6.980;2023-12-07T10:11:41;2.30;99.90
20504;DHT22;10410;51.046;6.980;2023-12-07T10:18:41;2.40;99.90
20504;DHT22;10410;51.046;6.980;2023-12-07T10:25:44;2.40;99.90
20504;DHT22;10410;51.046;6.980;2023-12-07T10:32:45;2.50;99.90
20504;DHT22;10410;51.046;6.980;2023-12-07T10:39:45;2.50;99.90
20504;DHT22;10410;51.046;6.980;2023-12-07T10:46:46;2.50;99.90
20504;DHT22;10410;51.046;6.980;2023-12-07T10:53:48;2.60;99.90
20504;DHT22;10410;51.046;6.980;2023-12-07T11:00:52;2.70;99.90
20504;DHT22;10410;51.046;6.980;2023-12-07T11:08:02;2.80;99.90
20504;DHT22;10410;51.046;6.980;2023-12-07T11:15:05;2.80;99.90
20504;DHT22;10410;51.046;6.980;2023-12-07T11:22:07;2.90;99.90
20504;DHT22;10410;51.046;6.980;2023-12-07T11:29:09;2.90;99.90
20504;DHT22;10410;51.046;6.980;2023-12-07T11:36:13;3.00;99.90
20504;DHT22;10410;51.046;6.980;2023-12-07T11:50:34;3.30;99.90
20504;DHT22;10410;51.046;6.980;2023-12-07T11:57:34;3.30;99.90
20504;DHT22;10410;51.046;6.980;2023-12-07T12:04:35;3.30;99.90
20504;DHT22;10410;51.046;6.980;2023-12-07T12:11:37;3.40;99.90
20504;DHT22;10410;51.046;6.980;2023-12-07T12:18:37;3.50;99.90
20504;DHT22;10410;51.046;6.980;2023-12-07T12:25:38;3.60;99.90
20504;DHT22;10410;51.046;6.980;2023-12-07T12:32:44;3.60;99.90
20504;DHT22;10410;51.046;6.980;2023-12-07T12:39:45;3.70;99.90
20504;DHT22;10410;51.046;6.980;2023-12-07T12:46:45;3.80;99.90
20504;DHT22;10410;51.046;6.980;2023-12-07T12:53:46;3.90;99.90
20504;DHT22;10410;51.046;6.980;2023-12-07T13:00:51;4.00;99.90
20504;DHT22;10410;51.046;6.980;2023-12-07T13:07:52;4.10;99.90
20504;DHT22;10410;51.046;6.980;2023-12-07T13:15:12;4.30;99.90
20504;DHT22;10410;51.046;6.980;2023-12-07T13:22:13;4.40;99.90
20504;DHT22;10410;51.046;6.980;2023-12-07T13:29:14;4.40;99.90
20504;DHT22;10410;51.046;6.980;2023-12-07T13:36:28;4.50;99.90
20504;DHT22;10410;51.046;6.980;2023-12-07T13:43:29;4.50;99.90
20504;DHT22;10410;51.046;6.980;2023-12-07T13:50:32;4.60;99.90
20504;DHT22;10410;51.046;6.980;2023-12-07T13:57:33;4.70;99.90
20504;DHT22;10410;51.046;6.980;2023-12-07T14:04:34;4.70;99.90
20504;DHT22;10410;51.046;6.980;2023-12-07T14:11:34;4.70;99.90
20504;DHT22;10410;51.046;6.980;2023-12-07T14:18:35;4.70;99.90
20504;DHT22;10410;51.046;6.980;2023-12-07T14:25:35;4.60;99.90
20504;DHT22;10410;51.046;6.980;2023-12-07T14:32:36;4.60;99.90
20504;DHT22;10410;51.046;6.980;2023-12-07T14:39:38;4.50;99.90
20504;DHT22;10410;51.046;6.980;2023-12-07T14:46:44;4.40;99.90
20504;DHT22;10410;51.046;6.980;2023-12-07T14:53:44;4.30;99.90
20504;DHT22;10410;51.046;6.980;2023-12-07T15:00:45;4.20;99.90
20504;DHT22;10410;51.046;6.980;2023-12-07T15:07:46;4.10;99.90
20504;DHT22;10410;51.046;6.980;2023-12-07T15:14:46;4.00;99.90
20504;DHT22;10410;51.046;6.980;2023-12-07T15:21:47;3.90;99.90
20504;DHT22;10410;51.046;6.980;2023-12-07T15:28:47;3.80;99.90
20504;DHT22;10410;51.046;6.980;2023-12-07T15:35:48;3.70;99.90
20504;DHT22;10410;51.046;6.980;2023-12-07T15:42:48;3.60;99.90
20504;DHT22;10410;51.046;6.980;2023-12-07T15:49:49;3.50;99.90
20504;DHT22;10410;51.046;6.980;2023-12-07T15:56:49;3.40;99.90
20504;DHT22;10410;51.046;6.980;2023-12-07T16:03:50;3.30;99.90
20504;DHT22;10410;51.046;6.980;2023-12-07T16:10:51;3.20;99.90
20504;DHT22;10410;51.046;6.980;2023-12-07T16:17:51;3.20;99.90
20504;DHT22;10410;51.046;6.980;2023-12-07T16:24:52;3.10;99.90
20504;DHT22;10410;51.046;6.980;2023-12-07T16:31:54;3.00;99.90
20504;DHT22;10410;51.046;6.980;2023-12-07T16:38:55;2.90;99.90
20504;DHT22;10410;51.046;6.980;2023-12-07T16:45:55;2.90;99.90
20504;DHT22;10410;51.046;6.980;2023-12-07T16:52:56;2.80;99.90
20504;DHT22;10410;51.046;6.980;2023-12-07T16:59:58;2.80;99.90
20504;DHT22;10410;51.046;6.980;2023-12-07T17:06:59;2.70;99.90
20504;DHT22;10410;51.046;6.980;2023-12-07T17:14:00;2.60;99.90
20504;DHT22;10410;51.046;6.980;2023-12-07T17:21:03;2.60;99.90
20504;DHT22;10410;51.046;6.980;2023-12-07T17:28:05;2.50;99.90
20504;DHT22;10410;51.046;6.980;2023-12-07T17:35:06;2.50;99.90
20504;DHT22;10410;51.046;6.980;2023-12-07T17:42:08;2.50;99.90
20504;DHT22;10410;51.046;6.980;2023-12-07T17:49:09;2.40;99.90
20504;DHT22;10410;51.046;6.980;2023-12-07T17:56:11;2.40;99.90
20504;DHT22;10410;51.046;6.980;2023-12-07T18:03:11;2.30;99.90
20504;DHT22;10410;51.046;6.980;2023-12-07T18:10:12;2.30;99.90
20504;DHT22;10410;51.046;6.980;2023-12-07T18:17:14;2.30;99.90
20504;DHT22;10410;51.046;6.980;2023-12-07T18:24:14;2.30;99.90
20504;DHT22;10410;51.046;6.980;2023-12-07T18:31:15;2.20;99.90
20504;DHT22;10410;51.046;6.980;2023-12-07T18:38:16;2.10;99.90
20504;DHT22;10410;51.046;6.980;2023-12-07T18:45:17;2.10;99.90
20504;DHT22;10410;51.046;6.980;2023-12-07T18:52:17;2.10;99.90
20504;DHT22;10410;51.046;6.980;2023-12-07T18:59:20;2.00;99.90
20504;DHT22;10410;51.046;6.980;2023-12-07T19:06:21;1.90;99.90
20504;DHT22;10410;51.046;6.980;2023-12-07T19:13:21;1.90;99.90
20504;DHT22;10410;51.046;6.980;2023-12-07T19:20:22;1.90;99.90
20504;DHT22;10410;51.046;6.980;2023-12-07T19:27:23;1.90;99.90
20504;DHT22;10410;51.046;6.980;2023-12-07T19:34:24;1.90;99.90
20504;DHT22;10410;51.046;6.980;2023-12-07T19:41:26;1.90;99.90
20504;DHT22;10410;51.046;6.980;2023-12-07T19:48:26;1.90;99.90
20504;DHT22;10410;51.046;6.980;2023-12-07T19:55:27;1.90;99.90
20504;DHT22;10410;51.046;6.980;2023-12-07T20:02:30;1.90;99.90
20504;DHT22;10410;51.046;6.980;2023-12-07T20:09:34;1.90;99.90
20504;DHT22;10410;51.046;6.980;2023-12-07T20:16:35;1.90;99.90
20504;DHT22;10410;51.046;6.980;2023-12-07T20:23:35;1.90;99.90
20504;DHT22;10410;51.046;6.980;2023-12-07T20:30:37;1.90;99.90
20504;DHT22;10410;51.046;6.980;2023-12-07T20:37:38;1.90;99.90
20504;DHT22;10410;51.046;6.980;2023-12-07T20:44:38;1.90;99.90
20504;DHT22;10410;51.046;6.980;2023-12-07T20:51:39;2.00;99.90
20504;DHT22;10410;51.046;6.980;2023-12-07T20:58:39;2.00;99.90
20504;DHT22;10410;51.046;6.980;2023-12-07T21:05:39;2.00;99.90
20504;DHT22;10410;51.046;6.980;2023-12-07T21:12:40;2.00;99.90
20504;DHT22;10410;51.046;6.980;2023-12-07T21:19:40;2.10;99.90
20504;DHT22;10410;51.046;6.980;2023-12-07T21:26:41;2.10;99.90
20504;DHT22;10410;51.046;6.980;2023-12-07T21:33:41;2.10;99.90
20504;DHT22;10410;51.046;6.980;2023-12-07T21:40:42;2.10;99.90
20504;DHT22;10410;51.046;6.980;2023-12-07T21:47:43;2.20;99.90
20504;DHT22;10410;51.046;6.980;2023-12-07T21:54:43;2.30;99.90
20504;DHT22;10410;51.046;6.980;2023-12-07T22:01:44;2.30;99.90
20504;DHT22;10410;51.046;6.980;2023-12-07T22:08:44;2.40;99.90
20504;DHT22;10410;51.046;6.980;2023-12-07T22:15:45;2.50;99.90
20504;DHT22;10410;51.046;6.980;2023-12-07T22:22:45;2.50;99.90
20504;DHT22;10410;51.046;6.980;2023-12-07T22:29:46;2.60;99.90
20504;DHT22;10410;51.046;6.980;2023-12-07T22:36:46;2.70;99.90
20504;DHT22;10410;51.046;6.980;2023-12-07T22:43:47;2.70;99.90
20504;DHT22;10410;51.046;6.980;2023-12-07T22:50:48;2.80;99.90
20504;DHT22;10410;51.046;6.980;2023-12-07T22:57:48;2.80;99.90
20504;DHT22;10410;51.046;6.980;2023-12-07T23:04:49;2.90;99.90
20504;DHT22;10410;51.046;6.980;2023-12-07T23:11:49;2.90;99.90
20504;DHT22;10410;51.046;6.980;2023-12-07T23:18:50;3.00;99.90
20504;DHT22;10410;51.046;6.980;2023-12-07T23:25:51;3.10;99.90
20504;DHT22;10410;51.046;6.980;2023-12-07T23:32:51;3.20;99.90
20504;DHT22;10410;51.046;6.980;2023-12-07T23:39:52;3.20;99.90
20504;DHT22;10410;51.046;6.980;2023-12-07T23:46:52;3.30;99.90
20504;DHT22;10410;51.046;6.980;2023-12-07T23:53:53;3.30;99.90
